Weather History for Minchumina, AK

Change the Weather History Date:

Sunday, June 16, 2013

  Actual Average Record
Temperature  
Mean Temperature 74 °F -  
Max Temperature 87 °F 65 °F 87 °F (2013)
Min Temperature 60 °F 48 °F 42 °F (2011)
Cooling Degree Days 8    
Growing Degree Days 24 (Base 50)    
Moisture  
Dew Point 47 °F    
Average Humidity 40    
Maximum Humidity 72    
Minimum Humidity 23    
Precipitation  
Precipitation 0.00 in - - ()
Sea Level Pressure  
Sea Level Pressure 30.20 in    
Wind  
Wind Speed 1 mph (East)    
Max Wind Speed 6 mph    
Max Gust Speed -    
Visibility 10 miles    
Events      
Averages and records for this station are not official NWS values.
T = Trace of Precipitation, MM = Missing Value Source: NWS Daily Summary

Daily Weather History Graph

Daily Weather History Graph

Search for Another Location

Airport:

Trip Planner

Search our weather history database for the weather conditions in past years. The results will help you decide how hot, cold, wet, or windy it might be!

Date:

Astronomy

Jun. 16, 2013 Rise Set
Actual Time 3:43 AM AKDT 12:36 AM AKDT
Civil Twilight Sun does not rise Sun does not rise
Nautical Twilight Sun does not rise Sun does not rise
Astronomical Twilight Sun does not rise Sun does not rise
Moon 2:42 PM AKDT (6/16) 1:47 AM AKDT (6/16)
Length of Visible Light 24h 00m
Length of Day
20h 52m
Waxing Crescent, 51% of the Moon is Illuminated
Jun 16
Waxing Crescent
Jun 23
Full
Jun 29
Last Quarter
Jul 7
New
Jul 15
First Quarter

Hourly Weather History & Observations

Time (AKDT) Temp. Heat Index Dew Point Humidity Pressure Visibility Wind Dir Wind Speed Gust Speed Precip Events Conditions
12:16 AM 69.8 °F - 41.0 °F 35% 30.18 in 10.0 mi Calm Calm - N/A   Clear
12:36 AM 69.8 °F - 41.0 °F 35% 30.18 in 10.0 mi Calm Calm - N/A   Clear
12:56 AM 69.8 °F - 41.0 °F 35% 30.18 in 10.0 mi Calm Calm - N/A   Clear
1:16 AM 68.0 °F - 41.0 °F 37% 30.19 in 10.0 mi Calm Calm - N/A   Clear
1:36 AM 66.2 °F - 46.4 °F 49% 30.19 in 10.0 mi Calm Calm - N/A   Clear
1:56 AM 66.2 °F - 46.4 °F 49% 30.20 in 10.0 mi Calm Calm - N/A   Clear
2:16 AM 66.2 °F - 48.2 °F 52% 30.20 in 10.0 mi Calm Calm - N/A   Partly Cloudy
2:36 AM 64.4 °F - 42.8 °F 45% 30.20 in 10.0 mi Calm Calm - N/A   Clear
2:56 AM 64.4 °F - 42.8 °F 45% 30.20 in 10.0 mi Calm Calm - N/A   Clear
3:16 AM 64.4 °F - 42.8 °F 45% 30.20 in 10.0 mi Calm Calm - N/A   Clear
3:36 AM 64.4 °F - 42.8 °F 45% 30.21 in 10.0 mi Calm Calm - N/A   Clear
3:56 AM 62.6 °F - 44.6 °F 52% 30.21 in 10.0 mi Calm Calm - N/A   Clear
4:16 AM 62.6 °F - 44.6 °F 52% 30.21 in 10.0 mi Calm Calm - N/A   Clear
4:36 AM 62.6 °F - 42.8 °F 48% 30.21 in 10.0 mi Calm Calm - N/A   Clear
4:56 AM 60.8 °F - 42.8 °F 52% 30.21 in 10.0 mi Calm Calm - N/A   Clear
5:16 AM 60.8 °F - 44.6 °F 55% 30.22 in 10.0 mi Calm Calm - N/A   Clear
5:36 AM 60.8 °F - 48.2 °F 63% 30.22 in 10.0 mi Calm Calm - N/A   Clear
5:56 AM 60.8 °F - 46.4 °F 59% 30.22 in 10.0 mi Calm Calm - N/A   Clear
6:16 AM 60.8 °F - 46.4 °F 59% 30.23 in 10.0 mi Calm Calm - N/A   Clear
6:36 AM 60.8 °F - 50.0 °F 68% 30.23 in 10.0 mi Calm Calm - N/A   Clear
6:56 AM 60.8 °F - 48.2 °F 63% 30.23 in 10.0 mi Calm Calm - N/A   Clear
7:16 AM 62.6 °F - 51.8 °F 68% 30.23 in 10.0 mi Calm Calm - N/A   Clear
7:36 AM 62.6 °F - 53.6 °F 72% 30.23 in 10.0 mi Calm Calm - N/A   Clear
7:56 AM 64.4 °F - 53.6 °F 68% 30.23 in 10.0 mi Calm Calm - N/A   Clear
8:16 AM 64.4 °F - 53.6 °F 68% 30.24 in 10.0 mi Calm Calm - N/A   Clear
8:36 AM 64.4 °F - 53.6 °F 68% 30.24 in 10.0 mi Calm Calm - N/A   Clear
8:56 AM 66.2 °F - 53.6 °F 64% 30.24 in 10.0 mi Calm Calm - N/A   Clear
9:16 AM 68.0 °F - 53.6 °F 60% 30.24 in 10.0 mi Calm Calm - N/A   Clear
9:36 AM 69.8 °F - 51.8 °F 53% 30.24 in 10.0 mi Calm Calm - N/A   Clear
9:56 AM 71.6 °F - 48.2 °F 43% 30.24 in 10.0 mi Calm Calm - N/A   Clear
10:16 AM 73.4 °F - 48.2 °F 41% 30.24 in 10.0 mi Calm Calm - N/A   Clear
10:36 AM 75.2 °F - 46.4 °F 36% 30.24 in 10.0 mi Calm Calm - N/A   Clear
10:56 AM 77.0 °F - 46.4 °F 34% 30.24 in 10.0 mi Calm Calm - N/A   Clear
11:16 AM 78.8 °F - 44.6 °F 30% 30.24 in 10.0 mi ENE 3.5 mph - N/A   Clear
11:36 AM 78.8 °F - 44.6 °F 30% 30.23 in 10.0 mi Calm Calm - N/A   Clear
11:56 AM 80.6 °F - 44.6 °F 28% 30.23 in 10.0 mi Calm Calm - N/A   Clear
12:16 PM 80.6 °F - 42.8 °F 26% 30.23 in 10.0 mi East 4.6 mph - N/A   Clear
12:36 PM 80.6 °F - 44.6 °F 28% 30.23 in 10.0 mi East 4.6 mph - N/A   Clear
12:56 PM 80.6 °F - 44.6 °F 28% 30.22 in 10.0 mi SSE 4.6 mph - N/A   Clear
1:16 PM 80.6 °F - 44.6 °F 28% 30.22 in 10.0 mi South 3.5 mph - N/A   Clear
1:36 PM 82.4 °F - 44.6 °F 26% 30.22 in 10.0 mi ESE 3.5 mph - N/A   Clear
1:56 PM 82.4 °F - 44.6 °F 26% 30.22 in 10.0 mi East 3.5 mph - N/A   Clear
2:16 PM 82.4 °F - 44.6 °F 26% 30.21 in 10.0 mi East 5.8 mph - N/A   Clear
2:36 PM 84.2 °F - 44.6 °F 25% 30.21 in 10.0 mi East 4.6 mph - N/A   Clear
2:56 PM 84.2 °F - 44.6 °F 25% 30.21 in 10.0 mi ENE 3.5 mph - N/A   Clear
3:16 PM 84.2 °F - 44.6 °F 25% 30.21 in 10.0 mi East 4.6 mph - N/A   Clear
3:36 PM 84.2 °F - 44.6 °F 25% 30.20 in 10.0 mi East 3.5 mph - N/A   Clear
3:56 PM 84.2 °F - 44.6 °F 25% 30.19 in 10.0 mi East 5.8 mph - N/A   Clear
4:16 PM 84.2 °F - 44.6 °F 25% 30.19 in 10.0 mi East 5.8 mph - N/A   Clear
4:36 PM 84.2 °F - 44.6 °F 25% 30.18 in 10.0 mi Calm Calm - N/A   Clear
4:56 PM 86.0 °F - 44.6 °F 23% 30.18 in 10.0 mi ENE 3.5 mph - N/A   Clear
5:16 PM 87.8 °F - 46.4 °F 24% 30.17 in 10.0 mi East 3.5 mph - N/A   Clear
5:36 PM 87.8 °F - 46.4 °F 24% 30.17 in 10.0 mi East 4.6 mph - N/A   Clear
5:56 PM 86.0 °F - 46.4 °F 25% 30.17 in 10.0 mi ENE 3.5 mph - N/A   Clear
6:16 PM 87.8 °F - 48.2 °F 25% 30.17 in 10.0 mi East 4.6 mph - N/A   Clear
6:36 PM 87.8 °F - 48.2 °F 25% 30.16 in 10.0 mi Calm Calm - N/A   Clear
6:56 PM 87.8 °F - 48.2 °F 25% 30.16 in 10.0 mi Calm Calm - N/A   Clear
7:16 PM 87.8 °F - 48.2 °F 25% 30.15 in 10.0 mi ENE 4.6 mph - N/A   Clear
7:36 PM 86.0 °F - 48.2 °F 27% 30.15 in 10.0 mi Calm Calm - N/A   Clear
7:56 PM 86.0 °F - 50.0 °F 29% 30.14 in 10.0 mi Calm Calm - N/A   Clear
8:16 PM 84.2 °F - 51.8 °F 33% 30.14 in 10.0 mi Calm Calm - N/A   Clear
8:36 PM 84.2 °F - 51.8 °F 33% 30.14 in 10.0 mi Calm Calm - N/A   Clear
8:56 PM 82.4 °F - 51.8 °F 35% 30.14 in 10.0 mi Calm Calm - N/A   Clear
9:16 PM 80.6 °F 80.3 °F 53.6 °F 39% 30.14 in 10.0 mi Calm Calm - N/A   Clear
9:36 PM 80.6 °F - 51.8 °F 37% 30.14 in 10.0 mi Calm Calm - N/A   Clear
9:56 PM 78.8 °F - 53.6 °F 42% 30.14 in 10.0 mi Calm Calm - N/A   Clear
10:16 PM 77.0 °F - 53.6 °F 44% 30.14 in 10.0 mi Calm Calm - N/A   Clear
10:36 PM 77.0 °F - 51.8 °F 41% 30.14 in 10.0 mi Calm Calm - N/A   Clear
10:56 PM 75.2 °F - 51.8 °F 44% 30.14 in 10.0 mi Calm Calm - N/A   Clear
11:16 PM 75.2 °F - 51.8 °F 44% 30.14 in 10.0 mi Calm Calm - N/A   Clear
11:36 PM 75.2 °F - 51.8 °F 44% 30.15 in 10.0 mi Calm Calm - N/A   Clear
11:56 PM 73.4 °F - 51.8 °F 47% 30.15 in 10.0 mi Calm Calm - N/A   Clear